sensor_id;sensor_type;location;lat;lon;timestamp;P1;durP1;ratioP1;P2;durP2;ratioP2
72769;SDS011;60893;50.848;12.072;2022-08-05T00:10:43;4.95;;;4.45;;
72769;SDS011;60893;50.848;12.072;2022-08-05T00:25:49;3.85;;;3.30;;
72769;SDS011;60893;50.848;12.072;2022-08-05T00:40:56;4.00;;;3.78;;
72769;SDS011;60893;50.848;12.072;2022-08-05T00:56:03;4.70;;;4.30;;
72769;SDS011;60893;50.848;12.072;2022-08-05T01:11:12;6.40;;;4.47;;
72769;SDS011;60893;50.848;12.072;2022-08-05T01:26:31;4.22;;;3.80;;
72769;SDS011;60893;50.848;12.072;2022-08-05T01:41:43;5.57;;;5.15;;
72769;SDS011;60893;50.848;12.072;2022-08-05T01:56:51;4.10;;;3.75;;
72769;SDS011;60893;50.848;12.072;2022-08-05T02:12:20;4.45;;;4.15;;
72769;SDS011;60893;50.848;12.072;2022-08-05T02:27:36;3.83;;;3.53;;
72769;SDS011;60893;50.848;12.072;2022-08-05T02:43:03;6.18;;;4.22;;
72769;SDS011;60893;50.848;12.072;2022-08-05T02:58:13;4.20;;;3.90;;
72769;SDS011;60893;50.848;12.072;2022-08-05T03:13:22;4.28;;;3.88;;
72769;SDS011;60893;50.848;12.072;2022-08-05T03:28:48;4.43;;;4.13;;
72769;SDS011;60893;50.848;12.072;2022-08-05T03:43:54;4.50;;;4.10;;
72769;SDS011;60893;50.848;12.072;2022-08-05T03:59:15;4.60;;;4.20;;
72769;SDS011;60893;50.848;12.072;2022-08-05T04:14:27;4.50;;;4.20;;
72769;SDS011;60893;50.848;12.072;2022-08-05T04:29:34;5.78;;;5.07;;
72769;SDS011;60893;50.848;12.072;2022-08-05T04:44:40;3.85;;;3.50;;
72769;SDS011;60893;50.848;12.072;2022-08-05T04:59:47;6.15;;;3.92;;
72769;SDS011;60893;50.848;12.072;2022-08-05T05:14:53;5.28;;;3.45;;
72769;SDS011;60893;50.848;12.072;2022-08-05T05:29:59;4.25;;;2.95;;
72769;SDS011;60893;50.848;12.072;2022-08-05T05:45:08;7.18;;;3.83;;
72769;SDS011;60893;50.848;12.072;2022-08-05T06:00:18;4.63;;;3.20;;
72769;SDS011;60893;50.848;12.072;2022-08-05T06:15:34;6.35;;;4.35;;
72769;SDS011;60893;50.848;12.072;2022-08-05T06:31:00;6.07;;;5.25;;
72769;SDS011;60893;50.848;12.072;2022-08-05T06:46:20;7.80;;;5.78;;
72769;SDS011;60893;50.848;12.072;2022-08-05T07:01:33;8.77;;;7.88;;
72769;SDS011;60893;50.848;12.072;2022-08-05T07:16:39;7.05;;;6.22;;
72769;SDS011;60893;50.848;12.072;2022-08-05T07:32:13;7.25;;;6.55;;
72769;SDS011;60893;50.848;12.072;2022-08-05T07:47:28;3.88;;;3.47;;
72769;SDS011;60893;50.848;12.072;2022-08-05T08:02:45;3.58;;;3.28;;
72769;SDS011;60893;50.848;12.072;2022-08-05T08:18:10;3.28;;;2.97;;
72769;SDS011;60893;50.848;12.072;2022-08-05T08:33:17;12.50;;;11.35;;
72769;SDS011;60893;50.848;12.072;2022-08-05T08:48:23;3.97;;;3.38;;
72769;SDS011;60893;50.848;12.072;2022-08-05T09:03:50;8.93;;;8.05;;
72769;SDS011;60893;50.848;12.072;2022-08-05T09:19:01;4.25;;;3.85;;
72769;SDS011;60893;50.848;12.072;2022-08-05T09:34:09;5.18;;;4.68;;
72769;SDS011;60893;50.848;12.072;2022-08-05T09:49:22;4.65;;;4.03;;
72769;SDS011;60893;50.848;12.072;2022-08-05T10:04:48;8.30;;;7.65;;
72769;SDS011;60893;50.848;12.072;2022-08-05T10:19:56;9.35;;;8.60;;
72769;SDS011;60893;50.848;12.072;2022-08-05T10:35:12;15.32;;;14.02;;
72769;SDS011;60893;50.848;12.072;2022-08-05T10:50:18;11.40;;;10.45;;
72769;SDS011;60893;50.848;12.072;2022-08-05T11:05:39;7.68;;;6.97;;
72769;SDS011;60893;50.848;12.072;2022-08-05T11:20:46;7.32;;;5.70;;
72769;SDS011;60893;50.848;12.072;2022-08-05T11:35:54;5.78;;;4.97;;
72769;SDS011;60893;50.848;12.072;2022-08-05T11:51:11;3.55;;;2.70;;
72769;SDS011;60893;50.848;12.072;2022-08-05T12:06:44;3.05;;;2.20;;
72769;SDS011;60893;50.848;12.072;2022-08-05T12:21:51;2.67;;;2.47;;
72769;SDS011;60893;50.848;12.072;2022-08-05T12:36:59;2.90;;;2.50;;
72769;SDS011;60893;50.848;12.072;2022-08-05T12:52:14;2.58;;;2.38;;
72769;SDS011;60893;50.848;12.072;2022-08-05T13:07:31;5.93;;;2.55;;
72769;SDS011;60893;50.848;12.072;2022-08-05T13:22:57;3.13;;;2.92;;
72769;SDS011;60893;50.848;12.072;2022-08-05T13:38:03;4.85;;;2.20;;
72769;SDS011;60893;50.848;12.072;2022-08-05T13:53:09;6.00;;;5.43;;
72769;SDS011;60893;50.848;12.072;2022-08-05T14:08:18;3.65;;;3.35;;
72769;SDS011;60893;50.848;12.072;2022-08-05T14:23:35;2.63;;;2.42;;
72769;SDS011;60893;50.848;12.072;2022-08-05T14:38:40;3.58;;;3.00;;
72769;SDS011;60893;50.848;12.072;2022-08-05T14:53:47;2.90;;;2.70;;
72769;SDS011;60893;50.848;12.072;2022-08-05T15:09:13;2.88;;;2.60;;
72769;SDS011;60893;50.848;12.072;2022-08-05T15:24:39;2.63;;;2.42;;
72769;SDS011;60893;50.848;12.072;2022-08-05T15:39:46;2.75;;;2.55;;
72769;SDS011;60893;50.848;12.072;2022-08-05T15:55:12;4.00;;;2.90;;
72769;SDS011;60893;50.848;12.072;2022-08-05T16:10:19;3.20;;;2.83;;
72769;SDS011;60893;50.848;12.072;2022-08-05T16:25:28;3.95;;;3.20;;
72769;SDS011;60893;50.848;12.072;2022-08-05T16:40:37;6.88;;;6.15;;
72769;SDS011;60893;50.848;12.072;2022-08-05T16:55:43;9.45;;;8.50;;
72769;SDS011;60893;50.848;12.072;2022-08-05T17:10:50;10.13;;;6.68;;
72769;SDS011;60893;50.848;12.072;2022-08-05T17:25:56;5.20;;;4.70;;
72769;SDS011;60893;50.848;12.072;2022-08-05T17:41:02;4.90;;;3.55;;
72769;SDS011;60893;50.848;12.072;2022-08-05T17:56:07;2.85;;;2.60;;
72769;SDS011;60893;50.848;12.072;2022-08-05T18:11:15;3.03;;;2.08;;
72769;SDS011;60893;50.848;12.072;2022-08-05T18:26:29;2.75;;;1.95;;
72769;SDS011;60893;50.848;12.072;2022-08-05T18:41:36;2.25;;;1.67;;
72769;SDS011;60893;50.848;12.072;2022-08-05T18:57:01;2.95;;;1.65;;
72769;SDS011;60893;50.848;12.072;2022-08-05T19:12:12;2.42;;;1.50;;
72769;SDS011;60893;50.848;12.072;2022-08-05T19:27:17;3.47;;;1.70;;
72769;SDS011;60893;50.848;12.072;2022-08-05T19:42:24;2.22;;;1.98;;
72769;SDS011;60893;50.848;12.072;2022-08-05T19:57:40;2.55;;;2.35;;
72769;SDS011;60893;50.848;12.072;2022-08-05T20:13:06;2.42;;;1.63;;
72769;SDS011;60893;50.848;12.072;2022-08-05T20:28:12;2.00;;;1.80;;
72769;SDS011;60893;50.848;12.072;2022-08-05T20:43:19;3.35;;;2.67;;
72769;SDS011;60893;50.848;12.072;2022-08-05T20:58:44;3.40;;;1.85;;
72769;SDS011;60893;50.848;12.072;2022-08-05T21:13:54;2.03;;;1.58;;
72769;SDS011;60893;50.848;12.072;2022-08-05T21:29:00;1.90;;;1.70;;
72769;SDS011;60893;50.848;12.072;2022-08-05T21:44:07;3.13;;;1.98;;
72769;SDS011;60893;50.848;12.072;2022-08-05T21:59:18;6.22;;;5.63;;
72769;SDS011;60893;50.848;12.072;2022-08-05T22:14:28;7.28;;;6.53;;
72769;SDS011;60893;50.848;12.072;2022-08-05T22:29:41;4.97;;;2.95;;
72769;SDS011;60893;50.848;12.072;2022-08-05T22:44:48;3.10;;;2.10;;
72769;SDS011;60893;50.848;12.072;2022-08-05T22:59:59;4.07;;;3.58;;
72769;SDS011;60893;50.848;12.072;2022-08-05T23:15:06;3.22;;;2.20;;
72769;SDS011;60893;50.848;12.072;2022-08-05T23:30:14;2.40;;;2.20;;
72769;SDS011;60893;50.848;12.072;2022-08-05T23:45:21;2.80;;;2.13;;
